sensor_id;sensor_type;location;lat;lon;timestamp;pressure;altitude;pressure_sealevel;temperature;humidity
26083;BME280;13848;49.018;12.078;2023-02-13T00:01:51;99696.41;;;3.43;84.50
26083;BME280;13848;49.018;12.078;2023-02-13T00:04:19;99696.50;;;3.42;84.80
26083;BME280;13848;49.018;12.078;2023-02-13T00:06:45;99697.44;;;3.31;85.53
26083;BME280;13848;49.018;12.078;2023-02-13T00:09:11;99693.75;;;3.43;85.22
26083;BME280;13848;49.018;12.078;2023-02-13T00:11:37;99689.69;;;3.17;86.01
26083;BME280;13848;49.018;12.078;2023-02-13T00:14:03;99690.34;;;2.98;86.67
26083;BME280;13848;49.018;12.078;2023-02-13T00:16:28;99690.09;;;3.01;86.97
26083;BME280;13848;49.018;12.078;2023-02-13T00:18:56;99690.00;;;3.03;86.93
26083;BME280;13848;49.018;12.078;2023-02-13T00:21:22;99693.03;;;3.30;86.36
26083;BME280;13848;49.018;12.078;2023-02-13T00:23:48;99689.47;;;3.52;85.54
26083;BME280;13848;49.018;12.078;2023-02-13T00:26:15;99689.59;;;3.51;85.38
26083;BME280;13848;49.018;12.078;2023-02-13T00:28:42;99689.03;;;3.36;85.23
26083;BME280;13848;49.018;12.078;2023-02-13T00:31:09;99693.56;;;3.13;86.26
26083;BME280;13848;49.018;12.078;2023-02-13T00:33:36;99695.47;;;2.90;86.52
26083;BME280;13848;49.018;12.078;2023-02-13T00:36:06;99694.22;;;3.05;86.59
26083;BME280;13848;49.018;12.078;2023-02-13T00:38:32;99697.38;;;2.88;86.57
26083;BME280;13848;49.018;12.078;2023-02-13T00:40:58;99696.06;;;2.82;86.56
26083;BME280;13848;49.018;12.078;2023-02-13T00:43:24;99695.84;;;2.74;86.89
26083;BME280;13848;49.018;12.078;2023-02-13T00:45:50;99700.41;;;2.72;87.31
26083;BME280;13848;49.018;12.078;2023-02-13T00:48:16;99705.25;;;2.78;87.01
26083;BME280;13848;49.018;12.078;2023-02-13T00:50:42;99700.69;;;2.80;87.03
26083;BME280;13848;49.018;12.078;2023-02-13T00:53:09;99702.38;;;2.59;87.41
26083;BME280;13848;49.018;12.078;2023-02-13T00:55:35;99698.38;;;2.64;88.08
26083;BME280;13848;49.018;12.078;2023-02-13T00:58:01;99703.34;;;2.80;87.65
26083;BME280;13848;49.018;12.078;2023-02-13T01:00:27;99702.38;;;2.81;86.76
26083;BME280;13848;49.018;12.078;2023-02-13T01:02:53;99707.81;;;2.91;87.65
26083;BME280;13848;49.018;12.078;2023-02-13T01:05:19;99704.53;;;2.99;86.91
26083;BME280;13848;49.018;12.078;2023-02-13T01:07:45;99706.34;;;2.87;87.11
26083;BME280;13848;49.018;12.078;2023-02-13T01:10:12;99703.81;;;2.85;87.84
26083;BME280;13848;49.018;12.078;2023-02-13T01:12:39;99699.19;;;2.99;87.62
26083;BME280;13848;49.018;12.078;2023-02-13T01:15:06;99704.28;;;3.02;87.61
26083;BME280;13848;49.018;12.078;2023-02-13T01:17:32;99694.47;;;3.02;87.63
26083;BME280;13848;49.018;12.078;2023-02-13T01:19:58;99701.88;;;2.87;87.66
26083;BME280;13848;49.018;12.078;2023-02-13T01:22:24;99701.38;;;2.82;88.46
26083;BME280;13848;49.018;12.078;2023-02-13T01:24:50;99695.69;;;2.87;88.32
26083;BME280;13848;49.018;12.078;2023-02-13T01:27:17;99687.59;;;2.77;88.46
26083;BME280;13848;49.018;12.078;2023-02-13T01:29:43;99690.03;;;2.80;88.66
26083;BME280;13848;49.018;12.078;2023-02-13T01:32:09;99686.38;;;2.81;88.43
26083;BME280;13848;49.018;12.078;2023-02-13T01:34:35;99687.72;;;2.87;88.81
26083;BME280;13848;49.018;12.078;2023-02-13T01:37:01;99681.66;;;2.85;88.89
26083;BME280;13848;49.018;12.078;2023-02-13T01:39:27;99681.06;;;2.70;89.01
26083;BME280;13848;49.018;12.078;2023-02-13T01:41:53;99677.91;;;2.76;88.57
26083;BME280;13848;49.018;12.078;2023-02-13T01:44:46;99681.28;;;2.78;88.81
26083;BME280;13848;49.018;12.078;2023-02-13T01:47:15;99673.78;;;2.83;88.87
26083;BME280;13848;49.018;12.078;2023-02-13T01:49:44;99684.69;;;2.91;88.42
26083;BME280;13848;49.018;12.078;2023-02-13T01:52:12;99672.72;;;2.52;88.43
26083;BME280;13848;49.018;12.078;2023-02-13T01:54:39;99677.81;;;2.44;89.36
26083;BME280;13848;49.018;12.078;2023-02-13T01:57:08;99674.78;;;2.49;89.24
26083;BME280;13848;49.018;12.078;2023-02-13T01:59:41;99676.22;;;2.64;89.41
26083;BME280;13848;49.018;12.078;2023-02-13T02:02:11;99681.69;;;2.74;89.29
26083;BME280;13848;49.018;12.078;2023-02-13T02:04:38;99671.59;;;2.77;89.27
26083;BME280;13848;49.018;12.078;2023-02-13T02:07:09;99672.84;;;2.84;88.80
26083;BME280;13848;49.018;12.078;2023-02-13T02:09:38;99678.59;;;2.89;88.53
26083;BME280;13848;49.018;12.078;2023-02-13T02:12:11;99682.84;;;2.92;88.40
26083;BME280;13848;49.018;12.078;2023-02-13T02:14:40;99674.38;;;2.87;88.06
26083;BME280;13848;49.018;12.078;2023-02-13T02:17:07;99671.13;;;2.72;87.99
26083;BME280;13848;49.018;12.078;2023-02-13T02:19:38;99668.22;;;2.86;87.88
26083;BME280;13848;49.018;12.078;2023-02-13T02:22:23;99668.44;;;2.94;87.32
26083;BME280;13848;49.018;12.078;2023-02-13T02:28:19;99669.03;;;2.98;86.83
26083;BME280;13848;49.018;12.078;2023-02-13T02:31:13;99661.69;;;2.79;87.40
26083;BME280;13848;49.018;12.078;2023-02-13T02:33:55;99662.19;;;2.84;87.43
26083;BME280;13848;49.018;12.078;2023-02-13T02:36:34;99655.13;;;2.83;87.58
26083;BME280;13848;49.018;12.078;2023-02-13T02:39:11;99656.59;;;2.76;87.43
26083;BME280;13848;49.018;12.078;2023-02-13T02:41:54;99656.63;;;2.43;87.62
26083;BME280;13848;49.018;12.078;2023-02-13T02:44:38;99661.00;;;2.44;87.80
26083;BME280;13848;49.018;12.078;2023-02-13T02:47:19;99662.09;;;2.41;87.79
26083;BME280;13848;49.018;12.078;2023-02-13T02:49:52;99657.38;;;2.45;87.34
26083;BME280;13848;49.018;12.078;2023-02-13T02:52:23;99656.88;;;2.51;87.68
26083;BME280;13848;49.018;12.078;2023-02-13T02:54:52;99649.13;;;2.59;87.71
26083;BME280;13848;49.018;12.078;2023-02-13T02:57:23;99654.22;;;2.51;87.29
26083;BME280;13848;49.018;12.078;2023-02-13T02:59:51;99655.19;;;2.50;87.33
26083;BME280;13848;49.018;12.078;2023-02-13T03:02:17;99653.25;;;2.52;86.95
26083;BME280;13848;49.018;12.078;2023-02-13T03:04:46;99656.13;;;2.49;87.00
26083;BME280;13848;49.018;12.078;2023-02-13T03:07:16;99650.81;;;2.49;86.73
26083;BME280;13848;49.018;12.078;2023-02-13T03:09:46;99658.34;;;2.44;87.10
26083;BME280;13848;49.018;12.078;2023-02-13T03:12:16;99658.81;;;2.49;87.00
26083;BME280;13848;49.018;12.078;2023-02-13T03:14:44;99654.94;;;2.53;86.59
26083;BME280;13848;49.018;12.078;2023-02-13T03:17:12;99659.78;;;2.59;86.51
26083;BME280;13848;49.018;12.078;2023-02-13T03:19:51;99652.28;;;2.53;86.32
26083;BME280;13848;49.018;12.078;2023-02-13T03:22:27;99654.94;;;2.53;86.38
26083;BME280;13848;49.018;12.078;2023-02-13T03:25:06;99660.13;;;2.54;86.87
26083;BME280;13848;49.018;12.078;2023-02-13T03:27:42;99660.75;;;2.47;86.88
26083;BME280;13848;49.018;12.078;2023-02-13T03:30:20;99655.91;;;2.63;86.65
26083;BME280;13848;49.018;12.078;2023-02-13T03:32:59;99655.88;;;2.74;86.22
26083;BME280;13848;49.018;12.078;2023-02-13T03:35:35;99656.25;;;2.70;86.07
26083;BME280;13848;49.018;12.078;2023-02-13T03:38:09;99657.09;;;2.70;86.20
26083;BME280;13848;49.018;12.078;2023-02-13T03:40:43;99657.47;;;2.65;86.00
26083;BME280;13848;49.018;12.078;2023-02-13T03:43:16;99659.28;;;2.65;86.84
26083;BME280;13848;49.018;12.078;2023-02-13T03:45:45;99660.53;;;2.61;85.95
26083;BME280;13848;49.018;12.078;2023-02-13T03:48:15;99663.19;;;2.61;85.94
26083;BME280;13848;49.018;12.078;2023-02-13T03:50:43;99658.78;;;2.60;86.06
26083;BME280;13848;49.018;12.078;2023-02-13T03:53:12;99660.88;;;2.56;86.09
26083;BME280;13848;49.018;12.078;2023-02-13T03:55:42;99661.22;;;2.63;85.87
26083;BME280;13848;49.018;12.078;2023-02-13T03:58:13;99661.72;;;2.57;85.74
26083;BME280;13848;49.018;12.078;2023-02-13T04:00:43;99663.88;;;2.63;85.65
26083;BME280;13848;49.018;12.078;2023-02-13T04:03:13;99665.72;;;2.62;85.42
26083;BME280;13848;49.018;12.078;2023-02-13T04:05:45;99665.59;;;2.64;85.15
26083;BME280;13848;49.018;12.078;2023-02-13T04:08:13;99654.72;;;2.56;85.41
26083;BME280;13848;49.018;12.078;2023-02-13T04:10:44;99665.84;;;2.50;85.59
26083;BME280;13848;49.018;12.078;2023-02-13T04:13:17;99663.28;;;2.48;85.85
26083;BME280;13848;49.018;12.078;2023-02-13T04:15:50;99657.84;;;2.61;85.42
26083;BME280;13848;49.018;12.078;2023-02-13T04:18:24;99656.88;;;2.62;85.20
26083;BME280;13848;49.018;12.078;2023-02-13T04:20:51;99652.25;;;2.64;85.10
26083;BME280;13848;49.018;12.078;2023-02-13T04:23:19;99658.09;;;2.58;84.96
26083;BME280;13848;49.018;12.078;2023-02-13T04:25:47;99655.19;;;2.61;85.45
26083;BME280;13848;49.018;12.078;2023-02-13T04:28:14;99655.78;;;2.53;85.18
26083;BME280;13848;49.018;12.078;2023-02-13T04:30:40;99657.25;;;2.57;85.34
26083;BME280;13848;49.018;12.078;2023-02-13T04:33:06;99660.03;;;2.56;85.47
26083;BME280;13848;49.018;12.078;2023-02-13T04:35:32;99661.84;;;2.55;85.24
26083;BME280;13848;49.018;12.078;2023-02-13T04:37:58;99661.22;;;2.52;85.50
26083;BME280;13848;49.018;12.078;2023-02-13T04:40:25;99658.81;;;2.49;85.40
26083;BME280;13848;49.018;12.078;2023-02-13T04:42:51;99655.56;;;2.56;85.04
26083;BME280;13848;49.018;12.078;2023-02-13T04:45:17;99657.47;;;2.65;84.81
26083;BME280;13848;49.018;12.078;2023-02-13T04:47:49;99648.13;;;2.71;85.23
26083;BME280;13848;49.018;12.078;2023-02-13T04:50:15;99649.13;;;2.59;84.68
26083;BME280;13848;49.018;12.078;2023-02-13T04:52:41;99650.72;;;2.61;85.26
26083;BME280;13848;49.018;12.078;2023-02-13T04:55:07;99648.63;;;2.65;85.20
26083;BME280;13848;49.018;12.078;2023-02-13T04:57:34;99643.56;;;2.62;84.84
26083;BME280;13848;49.018;12.078;2023-02-13T05:00:00;99643.06;;;2.68;84.42
26083;BME280;13848;49.018;12.078;2023-02-13T05:02:26;99648.50;;;2.66;84.84
26083;BME280;13848;49.018;12.078;2023-02-13T05:04:52;99649.13;;;2.59;85.18
26083;BME280;13848;49.018;12.078;2023-02-13T05:07:18;99650.31;;;2.66;84.80
26083;BME280;13848;49.018;12.078;2023-02-13T05:09:44;99648.41;;;2.68;84.65
26083;BME280;13848;49.018;12.078;2023-02-13T05:12:10;99656.88;;;2.73;84.12
26083;BME280;13848;49.018;12.078;2023-02-13T05:14:37;99653.22;;;2.74;84.25
26083;BME280;13848;49.018;12.078;2023-02-13T05:17:03;99647.16;;;2.72;84.10
26083;BME280;13848;49.018;12.078;2023-02-13T05:19:29;99647.06;;;2.62;84.27
26083;BME280;13848;49.018;12.078;2023-02-13T05:21:55;99652.47;;;2.72;83.94
26083;BME280;13848;49.018;12.078;2023-02-13T05:24:21;99659.63;;;2.72;83.85
26083;BME280;13848;49.018;12.078;2023-02-13T05:26:47;99655.16;;;2.72;84.21
26083;BME280;13848;49.018;12.078;2023-02-13T05:29:13;99653.72;;;2.68;84.19
26083;BME280;13848;49.018;12.078;2023-02-13T05:31:40;99658.06;;;2.69;83.89
26083;BME280;13848;49.018;12.078;2023-02-13T05:34:06;99662.19;;;2.73;83.86
26083;BME280;13848;49.018;12.078;2023-02-13T05:36:32;99657.31;;;2.78;83.77
26083;BME280;13848;49.018;12.078;2023-02-13T05:38:58;99668.00;;;2.67;84.04
26083;BME280;13848;49.018;12.078;2023-02-13T05:41:24;99665.56;;;2.75;83.98
26083;BME280;13848;49.018;12.078;2023-02-13T05:43:49;99672.09;;;2.71;84.21
26083;BME280;13848;49.018;12.078;2023-02-13T05:46:15;99669.94;;;2.65;84.17
26083;BME280;13848;49.018;12.078;2023-02-13T05:48:43;99675.25;;;2.65;84.30
26083;BME280;13848;49.018;12.078;2023-02-13T05:51:09;99677.19;;;2.74;83.72
26083;BME280;13848;49.018;12.078;2023-02-13T05:53:35;99673.78;;;2.72;84.16
26083;BME280;13848;49.018;12.078;2023-02-13T05:56:01;99674.28;;;2.77;84.22
26083;BME280;13848;49.018;12.078;2023-02-13T05:58:27;99667.75;;;2.81;83.71
26083;BME280;13848;49.018;12.078;2023-02-13T06:00:55;99674.03;;;2.80;83.76
26083;BME280;13848;49.018;12.078;2023-02-13T06:03:22;99677.69;;;2.79;83.74
26083;BME280;13848;49.018;12.078;2023-02-13T06:05:49;99682.25;;;2.77;83.88
26083;BME280;13848;49.018;12.078;2023-02-13T06:08:15;99687.09;;;2.83;83.85
26083;BME280;13848;49.018;12.078;2023-02-13T06:10:41;99688.81;;;2.84;83.93
26083;BME280;13848;49.018;12.078;2023-02-13T06:13:07;99687.09;;;2.83;83.89
26083;BME280;13848;49.018;12.078;2023-02-13T06:15:33;99698.38;;;2.76;84.09
26083;BME280;13848;49.018;12.078;2023-02-13T06:17:59;99691.72;;;2.70;84.09
26083;BME280;13848;49.018;12.078;2023-02-13T06:20:24;99695.84;;;2.74;84.09
26083;BME280;13848;49.018;12.078;2023-02-13T06:22:52;99695.84;;;2.74;84.40
26083;BME280;13848;49.018;12.078;2023-02-13T06:25:18;99709.03;;;2.76;84.53
26083;BME280;13848;49.018;12.078;2023-02-13T06:27:45;99707.34;;;2.75;84.54
26083;BME280;13848;49.018;12.078;2023-02-13T06:30:11;99712.81;;;2.73;84.61
26083;BME280;13848;49.018;12.078;2023-02-13T06:32:38;99718.56;;;2.78;84.45
26083;BME280;13848;49.018;12.078;2023-02-13T06:35:05;99713.50;;;2.75;84.98
26083;BME280;13848;49.018;12.078;2023-02-13T06:37:31;99715.81;;;2.80;84.61
26083;BME280;13848;49.018;12.078;2023-02-13T06:39:59;99714.47;;;2.85;83.68
26083;BME280;13848;49.018;12.078;2023-02-13T06:42:25;99719.53;;;2.88;83.98
26083;BME280;13848;49.018;12.078;2023-02-13T06:44:51;99719.53;;;2.88;84.00
26083;BME280;13848;49.018;12.078;2023-02-13T06:47:17;99720.16;;;2.92;83.58
26083;BME280;13848;49.018;12.078;2023-02-13T06:49:43;99720.38;;;2.89;83.64
26083;BME280;13848;49.018;12.078;2023-02-13T06:52:09;99722.56;;;2.84;83.83
26083;BME280;13848;49.018;12.078;2023-02-13T06:54:35;99718.13;;;2.84;84.03
26083;BME280;13848;49.018;12.078;2023-02-13T06:57:02;99729.22;;;2.89;84.10
26083;BME280;13848;49.018;12.078;2023-02-13T06:59:28;99731.78;;;3.02;83.52
26083;BME280;13848;49.018;12.078;2023-02-13T07:01:54;99730.31;;;2.98;83.17
26083;BME280;13848;49.018;12.078;2023-02-13T07:04:20;99737.34;;;2.99;83.34
26083;BME280;13848;49.018;12.078;2023-02-13T07:06:46;99739.78;;;3.02;83.65
26083;BME280;13848;49.018;12.078;2023-02-13T07:09:12;99739.38;;;3.07;83.30
26083;BME280;13848;49.018;12.078;2023-02-13T07:11:38;99736.13;;;3.14;83.06
26083;BME280;13848;49.018;12.078;2023-02-13T07:14:07;99736.22;;;3.13;83.05
26083;BME280;13848;49.018;12.078;2023-02-13T07:16:33;99741.09;;;3.19;82.74
26083;BME280;13848;49.018;12.078;2023-02-13T07:18:59;99744.31;;;3.23;82.42
26083;BME280;13848;49.018;12.078;2023-02-13T07:21:25;99742.03;;;3.18;82.71
26083;BME280;13848;49.018;12.078;2023-02-13T07:23:51;99748.19;;;3.18;82.18
26083;BME280;13848;49.018;12.078;2023-02-13T07:26:17;99748.59;;;3.14;82.77
26083;BME280;13848;49.018;12.078;2023-02-13T07:28:43;99750.63;;;3.22;82.19
26083;BME280;13848;49.018;12.078;2023-02-13T07:31:10;99746.84;;;3.24;82.52
26083;BME280;13848;49.018;12.078;2023-02-13T07:33:36;99739.28;;;3.08;82.49
26083;BME280;13848;49.018;12.078;2023-02-13T07:36:03;99748.13;;;3.09;82.47
26083;BME280;13848;49.018;12.078;2023-02-13T07:38:29;99750.53;;;3.12;82.51
26083;BME280;13848;49.018;12.078;2023-02-13T07:40:57;99735.00;;;3.17;82.25
26083;BME280;13848;49.018;12.078;2023-02-13T07:43:23;99742.63;;;3.22;82.78
26083;BME280;13848;49.018;12.078;2023-02-13T07:45:49;99748.56;;;3.25;82.66
26083;BME280;13848;49.018;12.078;2023-02-13T07:48:16;99744.66;;;3.29;82.65
26083;BME280;13848;49.018;12.078;2023-02-13T07:50:42;99746.84;;;3.35;82.03
26083;BME280;13848;49.018;12.078;2023-02-13T07:53:08;99747.94;;;3.33;81.80
26083;BME280;13848;49.018;12.078;2023-02-13T07:55:35;99749.50;;;3.35;82.21
26083;BME280;13848;49.018;12.078;2023-02-13T07:58:01;99735.94;;;3.38;81.95
26083;BME280;13848;49.018;12.078;2023-02-13T08:00:27;99744.28;;;3.45;82.10
26083;BME280;13848;49.018;12.078;2023-02-13T08:02:53;99742.59;;;3.44;82.03
26083;BME280;13848;49.018;12.078;2023-02-13T08:05:20;99751.91;;;3.50;81.88
26083;BME280;13848;49.018;12.078;2023-02-13T08:07:46;99746.63;;;3.59;81.79
26083;BME280;13848;49.018;12.078;2023-02-13T08:10:13;99748.72;;;3.56;81.44
26083;BME280;13848;49.018;12.078;2023-02-13T08:12:39;99755.63;;;3.58;81.58
26083;BME280;13848;49.018;12.078;2023-02-13T08:15:08;99753.81;;;3.47;81.18
26083;BME280;13848;49.018;12.078;2023-02-13T08:17:35;99749.78;;;3.32;81.37
26083;BME280;13848;49.018;12.078;2023-02-13T08:20:01;99749.66;;;3.23;81.63
26083;BME280;13848;49.018;12.078;2023-02-13T08:22:28;99752.84;;;2.83;82.35
26083;BME280;13848;49.018;12.078;2023-02-13T08:24:54;99751.16;;;2.82;82.52
26083;BME280;13848;49.018;12.078;2023-02-13T08:27:20;99750.19;;;2.72;82.70
26083;BME280;13848;49.018;12.078;2023-02-13T08:29:47;99752.50;;;2.76;83.10
26083;BME280;13848;49.018;12.078;2023-02-13T08:32:13;99758.53;;;3.01;82.61
26083;BME280;13848;49.018;12.078;2023-02-13T08:34:39;99759.00;;;3.06;82.20
26083;BME280;13848;49.018;12.078;2023-02-13T08:37:05;99752.44;;;3.21;82.12
26083;BME280;13848;49.018;12.078;2023-02-13T08:39:33;99756.75;;;3.77;84.71
26083;BME280;13848;49.018;12.078;2023-02-13T08:41:58;99755.13;;;3.96;83.54
26083;BME280;13848;49.018;12.078;2023-02-13T08:44:25;99750.53;;;3.87;81.70
26083;BME280;13848;49.018;12.078;2023-02-13T08:46:51;99757.63;;;3.77;81.12
26083;BME280;13848;49.018;12.078;2023-02-13T08:49:17;99758.69;;;3.86;80.90
26083;BME280;13848;49.018;12.078;2023-02-13T08:51:43;99765.13;;;3.83;80.39
26083;BME280;13848;49.018;12.078;2023-02-13T08:54:09;99767.31;;;3.78;80.51
26083;BME280;13848;49.018;12.078;2023-02-13T08:56:37;99770.69;;;3.80;80.20
26083;BME280;13848;49.018;12.078;2023-02-13T08:59:03;99771.63;;;3.90;80.51
26083;BME280;13848;49.018;12.078;2023-02-13T09:01:29;99776.19;;;3.99;80.89
26083;BME280;13848;49.018;12.078;2023-02-13T09:03:55;99771.13;;;3.96;80.13
26083;BME280;13848;49.018;12.078;2023-02-13T09:06:21;99769.91;;;4.00;80.38
26083;BME280;13848;49.018;12.078;2023-02-13T09:08:47;99770.69;;;4.12;79.94
26083;BME280;13848;49.018;12.078;2023-02-13T09:11:13;99770.16;;;3.97;80.02
26083;BME280;13848;49.018;12.078;2023-02-13T09:13:41;99770.47;;;4.04;79.55
26083;BME280;13848;49.018;12.078;2023-02-13T09:16:07;99770.84;;;3.99;79.68
26083;BME280;13848;49.018;12.078;2023-02-13T09:18:34;99770.78;;;3.90;79.50
26083;BME280;13848;49.018;12.078;2023-02-13T09:21:01;99768.16;;;3.79;80.00
26083;BME280;13848;49.018;12.078;2023-02-13T09:23:29;99768.34;;;3.66;80.42
26083;BME280;13848;49.018;12.078;2023-02-13T09:25:57;99765.63;;;3.77;80.66
26083;BME280;13848;49.018;12.078;2023-02-13T09:28:23;99760.31;;;3.77;80.02
26083;BME280;13848;49.018;12.078;2023-02-13T09:30:51;99757.56;;;3.88;80.85
26083;BME280;13848;49.018;12.078;2023-02-13T09:33:17;99767.22;;;4.00;80.44
26083;BME280;13848;49.018;12.078;2023-02-13T09:35:43;99767.13;;;3.59;80.18
26083;BME280;13848;49.018;12.078;2023-02-13T09:38:09;99776.03;;;3.48;81.46
26083;BME280;13848;49.018;12.078;2023-02-13T09:40:40;99767.13;;;3.59;81.18
26083;BME280;13848;49.018;12.078;2023-02-13T09:43:12;99769.31;;;3.54;81.08
26083;BME280;13848;49.018;12.078;2023-02-13T09:45:40;99770.56;;;3.50;80.82
26083;BME280;13848;49.018;12.078;2023-02-13T09:48:15;99764.47;;;3.59;81.23
26083;BME280;13848;49.018;12.078;2023-02-13T09:50:42;99756.84;;;3.65;81.28
26083;BME280;13848;49.018;12.078;2023-02-13T09:53:17;99762.69;;;3.80;80.63
26083;BME280;13848;49.018;12.078;2023-02-13T09:55:48;99762.56;;;3.82;81.03
26083;BME280;13848;49.018;12.078;2023-02-13T09:58:21;99769.94;;;3.89;80.64
26083;BME280;13848;49.018;12.078;2023-02-13T10:00:54;99762.41;;;3.94;80.50
26083;BME280;13848;49.018;12.078;2023-02-13T10:03:30;99766.44;;;4.10;80.42
26083;BME280;13848;49.018;12.078;2023-02-13T10:06:06;99762.41;;;4.15;80.55
26083;BME280;13848;49.018;12.078;2023-02-13T10:08:52;99763.19;;;4.27;80.00
26083;BME280;13848;49.018;12.078;2023-02-13T10:11:36;99761.31;;;4.39;79.64
26083;BME280;13848;49.018;12.078;2023-02-13T10:14:11;99768.28;;;4.30;79.75
26083;BME280;13848;49.018;12.078;2023-02-13T10:16:44;99758.50;;;4.40;79.06
26083;BME280;13848;49.018;12.078;2023-02-13T10:19:18;99768.66;;;4.46;79.18
26083;BME280;13848;49.018;12.078;2023-02-13T10:21:51;99769.84;;;4.53;79.08
26083;BME280;13848;49.018;12.078;2023-02-13T10:24:28;99771.22;;;4.48;79.66
26083;BME280;13848;49.018;12.078;2023-02-13T10:27:03;99769.34;;;4.69;79.02
26083;BME280;13848;49.018;12.078;2023-02-13T10:29:38;99774.19;;;4.75;79.27
26083;BME280;13848;49.018;12.078;2023-02-13T10:32:09;99775.56;;;4.70;78.38
26083;BME280;13848;49.018;12.078;2023-02-13T10:34:41;99764.72;;;4.71;78.91
26083;BME280;13848;49.018;12.078;2023-02-13T10:37:13;99771.06;;;4.70;78.80
26083;BME280;13848;49.018;12.078;2023-02-13T10:39:41;99776.13;;;4.73;78.33
26083;BME280;13848;49.018;12.078;2023-02-13T10:42:15;99772.00;;;4.69;78.62
26083;BME280;13848;49.018;12.078;2023-02-13T10:44:53;99767.13;;;4.74;79.08
26083;BME280;13848;49.018;12.078;2023-02-13T10:47:38;99763.25;;;4.88;78.26
26083;BME280;13848;49.018;12.078;2023-02-13T10:50:15;99761.72;;;4.95;78.49
26083;BME280;13848;49.018;12.078;2023-02-13T10:52:51;99757.47;;;5.23;79.34
26083;BME280;13848;49.018;12.078;2023-02-13T10:55:33;99763.22;;;5.19;78.71
26083;BME280;13848;49.018;12.078;2023-02-13T10:58:12;99762.66;;;5.25;78.03
26083;BME280;13848;49.018;12.078;2023-02-13T11:00:45;99764.47;;;5.15;77.93
26083;BME280;13848;49.018;12.078;2023-02-13T11:03:16;99760.59;;;5.28;78.13
26083;BME280;13848;49.018;12.078;2023-02-13T11:05:44;99755.53;;;5.35;78.15
26083;BME280;13848;49.018;12.078;2023-02-13T11:08:17;99751.19;;;5.73;79.02
26083;BME280;13848;49.018;12.078;2023-02-13T11:10:43;99754.56;;;5.55;77.40
26083;BME280;13848;49.018;12.078;2023-02-13T11:13:15;99748.50;;;5.53;76.81
26083;BME280;13848;49.018;12.078;2023-02-13T11:15:41;99743.97;;;5.44;76.40
26083;BME280;13848;49.018;12.078;2023-02-13T11:18:13;99752.41;;;5.30;76.83
26083;BME280;13848;49.018;12.078;2023-02-13T11:20:44;99752.66;;;5.27;76.60
26083;BME280;13848;49.018;12.078;2023-02-13T11:23:17;99750.16;;;5.25;77.21
26083;BME280;13848;49.018;12.078;2023-02-13T11:25:56;99749.59;;;5.31;77.70
26083;BME280;13848;49.018;12.078;2023-02-13T11:28:24;99754.50;;;5.17;76.79
26083;BME280;13848;49.018;12.078;2023-02-13T11:30:52;99760.31;;;5.41;77.54
26083;BME280;13848;49.018;12.078;2023-02-13T11:33:22;99760.06;;;5.54;77.21
26083;BME280;13848;49.018;12.078;2023-02-13T11:36:04;99754.81;;;5.43;76.95
26083;BME280;13848;49.018;12.078;2023-02-13T11:38:30;99750.06;;;5.66;77.95
26083;BME280;13848;49.018;12.078;2023-02-13T11:41:05;99759.50;;;5.60;76.00
26083;BME280;13848;49.018;12.078;2023-02-13T11:43:35;99756.06;;;5.39;76.96
26083;BME280;13848;49.018;12.078;2023-02-13T11:46:04;99750.72;;;5.29;76.90
26083;BME280;13848;49.018;12.078;2023-02-13T11:48:31;99756.63;;;5.23;77.55
26083;BME280;13848;49.018;12.078;2023-02-13T11:50:58;99762.19;;;5.00;78.02
26083;BME280;13848;49.018;12.078;2023-02-13T11:53:26;99760.75;;;4.96;78.16
26083;BME280;13848;49.018;12.078;2023-02-13T11:56:03;99753.50;;;5.18;78.23
26083;BME280;13848;49.018;12.078;2023-02-13T11:58:29;99759.09;;;5.05;77.57
26083;BME280;13848;49.018;12.078;2023-02-13T12:01:23;99762.22;;;5.20;78.53
26083;BME280;13848;49.018;12.078;2023-02-13T12:04:00;99755.34;;;5.27;77.58
26083;BME280;13848;49.018;12.078;2023-02-13T12:06:28;99756.28;;;5.06;78.23
26083;BME280;13848;49.018;12.078;2023-02-13T12:08:55;99750.53;;;5.21;78.20
26083;BME280;13848;49.018;12.078;2023-02-13T12:11:24;99749.31;;;5.25;77.31
26083;BME280;13848;49.018;12.078;2023-02-13T12:13:53;99747.34;;;5.37;78.23
26083;BME280;13848;49.018;12.078;2023-02-13T12:16:28;99740.34;;;5.45;76.74
26083;BME280;13848;49.018;12.078;2023-02-13T12:18:57;99748.50;;;5.34;76.93
26083;BME280;13848;49.018;12.078;2023-02-13T12:21:35;99745.50;;;5.27;77.00
26083;BME280;13848;49.018;12.078;2023-02-13T12:24:14;99745.81;;;5.34;77.46
26083;BME280;13848;49.018;12.078;2023-02-13T12:26:45;99737.19;;;5.21;77.10
26083;BME280;13848;49.018;12.078;2023-02-13T12:29:28;99732.00;;;5.29;77.79
26083;BME280;13848;49.018;12.078;2023-02-13T12:32:09;99728.22;;;5.41;77.41
26083;BME280;13848;49.018;12.078;2023-02-13T12:34:53;99722.28;;;5.38;77.96
26083;BME280;13848;49.018;12.078;2023-02-13T12:37:38;99722.56;;;5.44;76.99
26083;BME280;13848;49.018;12.078;2023-02-13T12:40:24;99711.31;;;5.50;76.72
26083;BME280;13848;49.018;12.078;2023-02-13T12:43:06;99718.78;;;5.56;77.32
26083;BME280;13848;49.018;12.078;2023-02-13T12:45:40;99709.94;;;5.46;77.28
26083;BME280;13848;49.018;12.078;2023-02-13T12:48:22;99711.31;;;5.50;77.55
26083;BME280;13848;49.018;12.078;2023-02-13T12:51:05;99711.44;;;5.39;76.82
26083;BME280;13848;49.018;12.078;2023-02-13T12:53:51;99709.06;;;5.55;76.94
26083;BME280;13848;49.018;12.078;2023-02-13T12:56:34;99705.69;;;5.44;76.51
26083;BME280;13848;49.018;12.078;2023-02-13T12:59:08;99700.06;;;5.56;77.17
26083;BME280;13848;49.018;12.078;2023-02-13T13:04:46;99700.91;;;5.67;76.61
26083;BME280;13848;49.018;12.078;2023-02-13T13:13:01;99687.69;;;5.75;76.54
26083;BME280;13848;49.018;12.078;2023-02-13T13:15:38;99692.47;;;5.71;76.15
26083;BME280;13848;49.018;12.078;2023-02-13T13:18:17;99695.00;;;5.82;76.97
26083;BME280;13848;49.018;12.078;2023-02-13T13:23:51;99690.50;;;5.83;76.42
26083;BME280;13848;49.018;12.078;2023-02-13T13:26:24;99694.69;;;5.85;75.81
26083;BME280;13848;49.018;12.078;2023-02-13T13:28:54;99686.81;;;5.84;76.01